Time;durP1;ratioP1;P1;durP2;ratioP2;P2;SDS_P1;SDS_P2;PMS_P1;PMS_P2;Temp;Humidity;BMP_temperature;BMP_pressure;BME280_temperature;BME280_humidity;BME280_pressure;Samples;Min_cycle;Max_cycle;Signal;HPM_P1;HPM_P2
2021/10/08 00:00:10;;;;;;;12.60;6.95;;;11.90;89.80;;;;;;5072780;28;20231;-65
2021/10/08 00:02:37;;;;;;;9.32;6.13;;;11.90;89.80;;;;;;5073463;28;20197;-64
2021/10/08 00:05:06;;;;;;;9.83;6.53;;;11.90;89.90;;;;;;5072904;28;20273;-63
2021/10/08 00:07:33;;;;;;;9.52;7.07;;;11.90;90.00;;;;;;5072775;28;20486;-65
2021/10/08 00:10:00;;;;;;;7.78;6.80;;;11.90;89.90;;;;;;5072693;28;20539;-64
2021/10/08 00:12:27;;;;;;;8.43;7.45;;;11.80;90.00;;;;;;5067184;28;20274;-64
2021/10/08 00:14:54;;;;;;;11.88;7.28;;;11.80;90.10;;;;;;5071171;28;20243;-64
2021/10/08 00:17:21;;;;;;;8.55;7.65;;;11.90;90.20;;;;;;5070577;28;20190;-64
2021/10/08 00:19:49;;;;;;;8.40;7.40;;;11.90;90.20;;;;;;5071216;28;20609;-63
2021/10/08 00:22:17;;;;;;;9.20;6.88;;;11.90;90.10;;;;;;5070739;28;20244;-64
2021/10/08 00:24:44;;;;;;;7.30;6.57;;;11.90;90.00;;;;;;5071149;28;20217;-64
2021/10/08 00:27:11;;;;;;;8.32;5.97;;;11.90;90.00;;;;;;5070401;28;20259;-65
2021/10/08 00:29:39;;;;;;;8.60;5.38;;;11.90;89.90;;;;;;5071186;28;20225;-64
2021/10/08 00:32:06;;;;;;;8.57;6.47;;;11.90;90.00;;;;;;5070715;28;20703;-64
2021/10/08 00:34:34;;;;;;;8.88;6.28;;;11.90;90.20;;;;;;5071405;28;20189;-64
2021/10/08 00:37:01;;;;;;;11.75;5.72;;;11.90;90.20;;;;;;5069833;28;20216;-64
2021/10/08 00:39:29;;;;;;;6.75;4.90;;;11.80;90.10;;;;;;5071387;28;20193;-64
2021/10/08 00:41:57;;;;;;;11.35;6.25;;;11.80;90.40;;;;;;5070410;28;20194;-64
2021/10/08 00:44:24;;;;;;;11.00;5.80;;;11.80;90.60;;;;;;5070681;28;20216;-64
2021/10/08 00:46:51;;;;;;;8.80;5.53;;;11.80;90.70;;;;;;5070314;28;20190;-64
2021/10/08 00:49:18;;;;;;;7.20;5.50;;;11.80;90.70;;;;;;5070784;28;20280;-64
2021/10/08 00:51:45;;;;;;;6.90;5.22;;;11.90;90.90;;;;;;5070423;28;20249;-64
2021/10/08 00:54:12;;;;;;;8.35;5.68;;;11.90;91.10;;;;;;5070915;28;20528;-65
2021/10/08 00:56:41;;;;;;;8.38;5.30;;;11.90;90.70;;;;;;5070278;28;20185;-64
2021/10/08 00:59:09;;;;;;;6.90;6.15;;;11.90;90.70;;;;;;5070827;28;20698;-65
2021/10/08 01:01:40;;;;;;;10.38;5.35;;;11.90;90.70;;;;;;5070322;28;20200;-64
2021/10/08 01:04:11;;;;;;;10.70;7.15;;;11.90;90.70;;;;;;5070057;28;20201;-65
2021/10/08 01:06:38;;;;;;;12.45;8.63;;;11.80;90.70;;;;;;5067991;28;20568;-65
2021/10/08 01:09:05;;;;;;;13.15;8.07;;;11.70;91.00;;;;;;5070378;28;20235;-64
2021/10/08 01:11:33;;;;;;;10.88;9.27;;;11.80;91.20;;;;;;5070319;28;20243;-65
2021/10/08 01:14:03;;;;;;;14.27;7.90;;;11.70;91.20;;;;;;5070140;28;20246;-68
2021/10/08 01:16:30;;;;;;;13.30;9.38;;;11.70;91.40;;;;;;5068377;28;20229;-63
2021/10/08 01:18:57;;;;;;;12.57;8.32;;;11.70;91.50;;;;;;5070320;28;20225;-64
2021/10/08 01:21:26;;;;;;;13.20;8.75;;;11.70;91.40;;;;;;5071965;28;20605;-64
2021/10/08 01:23:53;;;;;;;14.90;8.88;;;11.70;91.60;;;;;;5071595;28;20182;-64
2021/10/08 01:26:20;;;;;;;12.15;9.48;;;11.70;91.60;;;;;;5051950;28;20197;-64
2021/10/08 01:28:47;;;;;;;16.58;9.63;;;11.70;91.60;;;;;;5051882;28;20186;-64
2021/10/08 01:31:14;;;;;;;9.70;8.35;;;11.70;91.60;;;;;;5065626;28;20692;-64
2021/10/08 01:33:42;;;;;;;10.00;8.65;;;11.70;91.60;;;;;;5071845;28;20290;-64
2021/10/08 01:36:09;;;;;;;11.63;9.48;;;11.60;91.60;;;;;;5071666;28;20189;-64
2021/10/08 01:38:38;;;;;;;15.60;10.07;;;11.60;91.60;;;;;;5072168;28;20190;-64
2021/10/08 01:41:05;;;;;;;10.27;9.27;;;11.60;91.50;;;;;;5071732;28;20200;-64
2021/10/08 01:43:32;;;;;;;10.68;9.05;;;11.50;91.60;;;;;;5072029;28;20229;-64
2021/10/08 01:45:59;;;;;;;14.27;11.07;;;11.50;91.80;;;;;;5071618;28;20247;-64
2021/10/08 01:48:26;;;;;;;15.00;8.32;;;11.50;91.90;;;;;;5072082;28;20713;-64
2021/10/08 01:50:53;;;;;;;13.60;10.25;;;11.50;91.90;;;;;;5070950;28;20190;-64
2021/10/08 01:53:21;;;;;;;15.68;10.30;;;11.60;91.90;;;;;;5071746;28;20598;-64
2021/10/08 01:55:50;;;;;;;12.57;9.75;;;11.60;91.80;;;;;;5071361;28;20182;-64
2021/10/08 01:58:17;;;;;;;13.35;10.05;;;11.50;91.70;;;;;;5071260;28;20225;-64
2021/10/08 02:00:44;;;;;;;11.00;8.77;;;11.50;91.70;;;;;;5071752;28;20555;-64
2021/10/08 02:03:11;;;;;;;17.88;11.52;;;11.40;91.90;;;;;;5071166;28;20190;-64
2021/10/08 02:05:38;;;;;;;11.93;8.85;;;11.50;92.10;;;;;;5071984;28;20254;-64
2021/10/08 02:08:07;;;;;;;10.73;9.52;;;11.50;92.10;;;;;;5071460;28;20225;-66
2021/10/08 02:10:35;;;;;;;9.73;8.35;;;11.50;92.10;;;;;;5051866;28;20190;-64
2021/10/08 02:13:03;;;;;;;16.33;10.95;;;11.50;92.10;;;;;;5051604;28;20581;-64
2021/10/08 02:15:30;;;;;;;14.90;10.02;;;11.50;91.70;;;;;;5072310;28;20660;-63
2021/10/08 02:17:57;;;;;;;13.27;10.80;;;11.50;91.70;;;;;;5075345;28;20248;-64
2021/10/08 02:20:24;;;;;;;18.73;10.45;;;11.50;91.70;;;;;;5074501;28;20185;-64
2021/10/08 02:22:51;;;;;;;12.48;10.13;;;11.50;91.80;;;;;;5075489;28;20189;-64
2021/10/08 02:25:19;;;;;;;14.80;12.82;;;11.50;91.90;;;;;;5074503;28;20214;-64
2021/10/08 02:27:49;;;;;;;12.80;11.20;;;11.50;91.60;;;;;;5074564;28;20251;-64
2021/10/08 02:30:17;;;;;;;13.23;9.05;;;11.50;91.70;;;;;;5075023;28;20189;-64
2021/10/08 02:32:44;;;;;;;15.88;10.48;;;11.50;91.80;;;;;;5074407;28;20263;-64
2021/10/08 02:35:12;;;;;;;16.75;10.65;;;11.50;91.90;;;;;;5075040;28;20209;-64
2021/10/08 02:37:39;;;;;;;17.45;10.48;;;11.50;91.80;;;;;;5074570;28;20186;-64
2021/10/08 02:40:08;;;;;;;11.98;9.40;;;11.50;91.70;;;;;;5074897;28;20198;-64
2021/10/08 02:42:35;;;;;;;11.70;8.75;;;11.50;91.80;;;;;;5074304;28;20193;-64
2021/10/08 02:45:02;;;;;;;13.35;10.35;;;11.50;91.90;;;;;;5073936;28;20255;-64
2021/10/08 02:47:31;;;;;;;11.27;8.48;;;11.60;91.90;;;;;;5074101;28;20181;-64
2021/10/08 02:49:58;;;;;;;12.75;9.50;;;11.60;91.80;;;;;;5074424;28;20189;-64
2021/10/08 02:52:25;;;;;;;14.70;9.50;;;11.60;91.60;;;;;;5074157;28;20248;-64
2021/10/08 02:54:52;;;;;;;13.73;10.05;;;11.60;91.50;;;;;;5073516;28;20190;-64
2021/10/08 02:57:19;;;;;;;13.80;8.90;;;11.60;91.80;;;;;;5074682;28;20266;-64
2021/10/08 02:59:47;;;;;;;13.40;8.93;;;11.60;91.40;;;;;;5073679;28;20272;-64
2021/10/08 03:02:14;;;;;;;12.18;9.43;;;11.60;91.50;;;;;;5074505;28;20232;-64
2021/10/08 03:04:42;;;;;;;16.45;10.40;;;11.60;91.50;;;;;;5074144;28;20193;-64
2021/10/08 03:07:10;;;;;;;14.35;10.75;;;11.60;91.50;;;;;;5074442;28;20302;-64
2021/10/08 03:09:37;;;;;;;14.57;10.02;;;11.60;91.50;;;;;;5073845;28;20571;-64
2021/10/08 03:12:04;;;;;;;15.75;9.23;;;11.60;91.40;;;;;;5074006;28;20210;-64
2021/10/08 03:14:31;;;;;;;12.38;9.18;;;11.60;91.50;;;;;;5073981;28;20205;-68
2021/10/08 03:16:59;;;;;;;11.75;10.25;;;11.60;91.70;;;;;;5053812;28;20641;-63
2021/10/08 03:19:26;;;;;;;19.63;9.32;;;11.60;91.80;;;;;;5054264;28;20198;-64
2021/10/08 03:21:54;;;;;;;12.30;9.35;;;11.60;91.90;;;;;;5073202;28;20269;-66
2021/10/08 03:24:21;;;;;;;12.65;9.38;;;11.60;91.90;;;;;;5073725;28;20239;-64
2021/10/08 03:26:49;;;;;;;14.40;9.18;;;11.60;91.80;;;;;;5074089;28;20194;-64
2021/10/08 03:29:16;;;;;;;10.70;8.07;;;11.60;91.90;;;;;;5073338;28;20185;-69
2021/10/08 03:31:43;;;;;;;11.13;9.15;;;11.60;92.00;;;;;;5073249;28;20255;-65
2021/10/08 03:34:10;;;;;;;16.13;11.85;;;11.60;92.10;;;;;;5073406;28;20186;-64
2021/10/08 03:36:42;;;;;;;18.58;10.63;;;11.60;92.10;;;;;;5073927;28;20223;-64
2021/10/08 03:39:14;;;;;;;10.02;8.50;;;11.60;92.20;;;;;;5073297;28;20189;-64
2021/10/08 03:41:43;;;;;;;12.77;9.50;;;11.60;92.00;;;;;;5073081;28;20216;-65
2021/10/08 03:44:11;;;;;;;16.33;9.80;;;11.70;92.00;;;;;;5072800;28;20196;-64
2021/10/08 03:46:42;;;;;;;14.77;8.93;;;11.70;92.00;;;;;;5073683;28;20585;-64
2021/10/08 03:49:16;;;;;;;14.25;10.68;;;11.70;92.10;;;;;;5072329;28;20276;-65
2021/10/08 03:51:44;;;;;;;12.40;9.77;;;11.70;92.10;;;;;;5073049;28;20733;-64
2021/10/08 03:54:13;;;;;;;15.27;10.38;;;11.70;92.10;;;;;;5073549;28;20194;-64
2021/10/08 03:56:41;;;;;;;11.25;9.02;;;11.70;92.10;;;;;;5072796;28;20648;-64
2021/10/08 03:59:08;;;;;;;11.93;9.73;;;11.70;92.20;;;;;;5073522;28;20197;-65
2021/10/08 04:01:36;;;;;;;12.85;9.25;;;11.70;92.30;;;;;;5072967;28;20177;-64
2021/10/08 04:04:05;;;;;;;12.52;10.52;;;11.70;92.20;;;;;;5073253;28;20197;-64
2021/10/08 04:06:32;;;;;;;13.45;9.35;;;11.70;92.20;;;;;;5073590;28;20251;-64
2021/10/08 04:09:00;;;;;;;13.65;9.13;;;11.60;92.20;;;;;;5073251;28;20213;-64
2021/10/08 04:11:29;;;;;;;11.98;9.63;;;11.60;92.40;;;;;;5073402;28;20186;-64
2021/10/08 04:13:57;;;;;;;10.48;8.65;;;11.60;92.50;;;;;;5072799;28;20212;-64
2021/10/08 04:16:24;;;;;;;10.68;7.65;;;11.60;92.40;;;;;;5073181;28;20193;-64
2021/10/08 04:18:51;;;;;;;8.75;7.72;;;11.70;92.40;;;;;;5072565;28;20276;-64
2021/10/08 04:21:19;;;;;;;13.18;7.88;;;11.70;92.20;;;;;;5073472;28;20621;-64
2021/10/08 04:23:46;;;;;;;10.18;7.95;;;11.70;92.20;;;;;;5072790;28;20189;-64
2021/10/08 04:26:13;;;;;;;11.65;7.95;;;11.70;92.10;;;;;;5073002;28;20190;-64
2021/10/08 04:28:42;;;;;;;9.57;7.80;;;11.70;92.20;;;;;;5072459;28;20193;-66
2021/10/08 04:31:09;;;;;;;13.73;8.60;;;11.70;92.30;;;;;;5072971;28;20553;-64
2021/10/08 04:33:36;;;;;;;12.00;8.70;;;11.70;92.20;;;;;;5073174;28;20411;-64
2021/10/08 04:36:04;;;;;;;9.82;8.43;;;11.70;92.20;;;;;;5072430;28;20599;-64
2021/10/08 04:38:32;;;;;;;10.70;8.25;;;11.70;92.40;;;;;;5072500;28;20197;-64
2021/10/08 04:40:59;;;;;;;10.55;8.30;;;11.70;92.40;;;;;;5072596;28;20182;-64
2021/10/08 04:43:27;;;;;;;12.80;8.75;;;11.70;92.40;;;;;;5072779;28;20271;-65
2021/10/08 04:45:56;;;;;;;10.38;8.10;;;11.70;92.40;;;;;;5071851;28;20229;-64
2021/10/08 04:48:24;;;;;;;11.65;9.43;;;11.70;92.40;;;;;;5072491;28;20197;-64
2021/10/08 04:50:51;;;;;;;12.55;9.25;;;11.70;92.50;;;;;;5072429;28;20228;-64
2021/10/08 04:53:19;;;;;;;15.55;9.25;;;11.70;92.60;;;;;;5072072;28;20676;-64
2021/10/08 04:55:47;;;;;;;11.68;8.43;;;11.70;92.60;;;;;;5072741;28;20189;-64
2021/10/08 04:58:15;;;;;;;14.20;8.98;;;11.70;92.70;;;;;;5072217;28;20201;-64
2021/10/08 05:00:42;;;;;;;10.88;8.88;;;11.80;92.80;;;;;;5071627;28;20190;-65
2021/10/08 05:03:13;;;;;;;10.95;9.35;;;11.80;92.80;;;;;;5072846;28;20212;-64
2021/10/08 05:05:47;;;;;;;13.82;9.85;;;11.70;92.80;;;;;;5072492;28;20705;-64
2021/10/08 05:08:15;;;;;;;11.35;8.57;;;11.70;92.70;;;;;;5056237;28;20225;-65
2021/10/08 05:10:42;;;;;;;11.95;9.48;;;11.70;92.90;;;;;;5068985;28;20217;-65
2021/10/08 05:13:09;;;;;;;13.05;10.25;;;11.70;92.90;;;;;;5070403;28;20308;-65
2021/10/08 05:15:36;;;;;;;11.98;9.65;;;11.70;92.90;;;;;;5070909;28;20200;-64
2021/10/08 05:18:04;;;;;;;14.25;9.50;;;11.70;93.20;;;;;;5070504;28;20243;-64
2021/10/08 05:20:33;;;;;;;14.00;10.05;;;11.70;93.00;;;;;;5070781;28;20193;-64
2021/10/08 05:23:00;;;;;;;11.80;8.52;;;11.70;93.10;;;;;;5070132;28;20190;-64
2021/10/08 05:25:27;;;;;;;12.40;9.98;;;11.70;93.10;;;;;;5070869;28;20202;-64
2021/10/08 05:27:54;;;;;;;12.00;8.70;;;11.70;93.10;;;;;;5070318;28;20189;-64
2021/10/08 05:30:21;;;;;;;13.68;9.57;;;11.80;93.00;;;;;;5070384;28;20189;-65
2021/10/08 05:32:49;;;;;;;12.63;9.50;;;11.80;93.00;;;;;;5070535;28;20255;-64
2021/10/08 05:35:17;;;;;;;14.32;10.60;;;11.80;92.90;;;;;;5070007;28;20190;-64
2021/10/08 05:37:46;;;;;;;15.07;9.82;;;11.80;92.80;;;;;;5070569;28;20196;-64
2021/10/08 05:40:14;;;;;;;14.77;9.75;;;11.80;92.90;;;;;;5069676;28;20197;-64
2021/10/08 05:42:41;;;;;;;11.30;10.10;;;11.80;93.00;;;;;;5070898;28;20236;-64
2021/10/08 05:45:09;;;;;;;12.57;9.48;;;11.80;92.90;;;;;;5070420;28;20189;-64
2021/10/08 05:47:36;;;;;;;12.48;9.45;;;11.70;92.70;;;;;;5070219;28;20190;-64
2021/10/08 05:50:04;;;;;;;11.25;9.20;;;11.70;92.90;;;;;;5071470;28;20641;-64
2021/10/08 05:52:31;;;;;;;13.75;9.93;;;11.70;92.80;;;;;;5073699;28;20676;-65
2021/10/08 05:54:59;;;;;;;14.38;9.05;;;11.60;92.70;;;;;;5074155;28;20182;-64
2021/10/08 05:57:26;;;;;;;14.02;9.73;;;11.70;92.60;;;;;;5074245;28;20200;-65
2021/10/08 05:59:54;;;;;;;11.60;9.23;;;11.60;92.70;;;;;;5072594;28;20200;-64
2021/10/08 06:02:21;;;;;;;11.25;8.52;;;11.50;93.20;;;;;;5074057;28;20190;-64
2021/10/08 06:04:48;;;;;;;14.45;9.77;;;11.60;93.40;;;;;;5074008;28;20593;-64
2021/10/08 06:07:20;;;;;;;11.45;9.45;;;11.60;93.50;;;;;;5073745;28;20218;-65
2021/10/08 06:09:47;;;;;;;12.95;10.25;;;11.60;93.50;;;;;;5067974;28;20632;-64
2021/10/08 06:12:16;;;;;;;11.30;9.10;;;11.70;93.40;;;;;;5073072;28;20280;-65
2021/10/08 06:14:43;;;;;;;12.75;9.73;;;11.60;92.80;;;;;;5073405;28;20281;-64
2021/10/08 06:17:10;;;;;;;14.00;9.32;;;11.60;93.10;;;;;;5069483;28;20635;-64
2021/10/08 06:19:37;;;;;;;13.07;11.20;;;11.60;93.20;;;;;;5074048;28;20280;-65
2021/10/08 06:22:04;;;;;;;11.50;10.00;;;11.60;93.10;;;;;;5073039;28;20700;-64
2021/10/08 06:24:31;;;;;;;15.48;10.32;;;11.70;92.80;;;;;;5073709;28;20201;-64
2021/10/08 06:26:58;;;;;;;12.15;10.13;;;11.70;93.00;;;;;;5073068;28;20592;-64
2021/10/08 06:29:26;;;;;;;12.48;10.30;;;11.70;92.70;;;;;;5073998;28;20261;-64
2021/10/08 06:31:53;;;;;;;13.77;9.60;;;11.70;92.70;;;;;;5073114;28;20296;-64
2021/10/08 06:34:20;;;;;;;12.45;9.77;;;11.70;92.30;;;;;;5073382;28;20304;-64
2021/10/08 06:36:47;;;;;;;13.93;10.38;;;11.70;92.40;;;;;;5071530;28;20177;-64
2021/10/08 06:39:14;;;;;;;13.85;9.70;;;11.70;92.70;;;;;;5074152;28;20284;-64
2021/10/08 06:41:43;;;;;;;14.40;10.15;;;11.70;93.00;;;;;;5071106;28;20265;-64
2021/10/08 06:44:10;;;;;;;14.20;9.75;;;11.80;93.00;;;;;;5073749;28;20202;-65
2021/10/08 06:46:39;;;;;;;15.00;11.07;;;11.80;92.70;;;;;;5073442;28;20513;-65
2021/10/08 06:49:06;;;;;;;10.30;8.15;;;11.90;92.70;;;;;;5074085;28;20289;-64
2021/10/08 06:51:33;;;;;;;12.13;10.05;;;11.90;92.80;;;;;;5074131;28;20281;-64
2021/10/08 06:54:00;;;;;;;13.75;9.13;;;11.90;92.80;;;;;;5073455;28;20257;-64
2021/10/08 06:56:29;;;;;;;13.77;9.77;;;12.00;92.60;;;;;;5073665;28;20292;-64
2021/10/08 06:58:56;;;;;;;11.90;8.85;;;11.90;92.40;;;;;;5073621;28;20204;-64
2021/10/08 07:01:23;;;;;;;11.93;8.65;;;12.00;92.50;;;;;;5073260;28;20513;-64
2021/10/08 07:03:51;;;;;;;12.25;8.40;;;12.00;92.60;;;;;;5073325;28;20193;-65
2021/10/08 07:06:18;;;;;;;11.55;8.95;;;12.10;92.70;;;;;;5073618;28;20284;-64
2021/10/08 07:08:45;;;;;;;10.82;8.52;;;12.10;92.70;;;;;;5074780;28;20305;-64
2021/10/08 07:11:12;;;;;;;11.40;9.02;;;12.20;92.60;;;;;;5074944;28;20277;-65
2021/10/08 07:13:40;;;;;;;14.13;9.30;;;12.20;92.50;;;;;;5074930;28;20312;-65
2021/10/08 07:16:08;;;;;;;10.98;9.07;;;12.30;92.60;;;;;;5074651;28;20428;-65
2021/10/08 07:18:36;;;;;;;11.02;8.45;;;12.30;92.70;;;;;;5074660;28;20636;-65
2021/10/08 07:21:08;;;;;;;13.85;10.82;;;12.40;92.60;;;;;;5074760;28;20201;-64
2021/10/08 07:23:38;;;;;;;12.93;10.27;;;12.40;92.60;;;;;;5074743;28;20285;-64
2021/10/08 07:26:05;;;;;;;10.25;8.60;;;12.50;92.70;;;;;;5074957;28;20436;-64
2021/10/08 07:28:38;;;;;;;9.80;7.88;;;12.50;92.70;;;;;;5074403;28;20284;-64
2021/10/08 07:31:07;;;;;;;15.57;9.70;;;12.60;92.60;;;;;;5074800;28;20208;-64
2021/10/08 07:33:35;;;;;;;11.88;9.07;;;12.60;92.50;;;;;;5074693;28;20484;-64
2021/10/08 07:36:04;;;;;;;12.43;10.00;;;12.60;92.30;;;;;;5074743;28;20604;-64
2021/10/08 07:38:31;;;;;;;13.10;9.07;;;12.70;92.30;;;;;;5074608;28;20541;-64
2021/10/08 07:41:03;;;;;;;13.93;10.30;;;12.70;92.40;;;;;;5074030;28;20442;-64
2021/10/08 07:43:30;;;;;;;17.53;9.50;;;12.70;92.40;;;;;;5074567;28;20929;-64
2021/10/08 07:45:57;;;;;;;12.73;8.77;;;12.80;92.30;;;;;;5069528;28;20447;-66
2021/10/08 07:48:24;;;;;;;10.13;8.00;;;12.80;92.60;;;;;;5072640;28;20534;-66
2021/10/08 07:50:51;;;;;;;10.63;8.13;;;12.90;92.00;;;;;;5069395;28;20858;-65
2021/10/08 07:53:20;;;;;;;11.27;7.87;;;12.90;91.90;;;;;;5071198;28;20563;-66
2021/10/08 07:55:47;;;;;;;8.40;6.53;;;12.90;92.00;;;;;;5070998;28;20442;-65
2021/10/08 07:58:14;;;;;;;6.10;4.90;;;13.00;91.80;;;;;;5070942;28;20236;-64
2021/10/08 08:00:44;;;;;;;8.27;4.60;;;13.00;91.70;;;;;;5071212;28;20522;-64
2021/10/08 08:03:11;;;;;;;7.78;5.47;;;13.10;91.50;;;;;;5070919;28;20547;-65
2021/10/08 08:05:38;;;;;;;6.00;5.27;;;13.10;91.50;;;;;;5070670;28;20272;-65
2021/10/08 08:08:05;;;;;;;11.07;5.10;;;13.20;91.80;;;;;;5070588;28;20542;-65
2021/10/08 08:10:33;;;;;;;5.47;3.77;;;13.20;91.10;;;;;;5070963;28;20556;-65
2021/10/08 08:13:02;;;;;;;6.53;4.00;;;13.20;91.00;;;;;;5070009;28;20482;-65
2021/10/08 08:15:29;;;;;;;7.00;4.43;;;13.20;90.90;;;;;;5066880;28;20518;-64
2021/10/08 08:17:56;;;;;;;4.73;4.13;;;13.20;90.70;;;;;;5070837;28;20451;-64
2021/10/08 08:20:23;;;;;;;6.00;4.40;;;13.20;90.70;;;;;;5070705;28;20583;-65
2021/10/08 08:22:50;;;;;;;7.13;4.50;;;13.20;90.90;;;;;;5070495;28;20444;-65
2021/10/08 08:25:18;;;;;;;6.93;4.03;;;13.30;90.80;;;;;;5070565;28;20798;-64
2021/10/08 08:27:47;;;;;;;5.97;3.63;;;13.30;90.50;;;;;;5070684;28;20440;-67
2021/10/08 08:30:14;;;;;;;4.50;3.70;;;13.30;90.60;;;;;;5070673;28;20559;-66
2021/10/08 08:32:41;;;;;;;4.70;3.80;;;13.30;90.50;;;;;;5070690;28;20440;-64
2021/10/08 08:35:09;;;;;;;5.33;4.00;;;13.40;90.80;;;;;;5070401;28;20491;-65
2021/10/08 08:37:36;;;;;;;4.60;2.90;;;13.40;90.20;;;;;;5070774;28;20798;-65
2021/10/08 08:40:06;;;;;;;5.70;4.03;;;13.40;90.30;;;;;;5070567;28;20526;-65
2021/10/08 08:42:34;;;;;;;5.20;3.70;;;13.50;90.30;;;;;;5066388;28;20937;-65
2021/10/08 08:45:03;;;;;;;5.13;4.43;;;13.50;90.00;;;;;;5070331;28;20522;-65
2021/10/08 08:47:30;;;;;;;8.53;4.53;;;13.60;89.80;;;;;;5070667;28;20498;-64
2021/10/08 08:49:57;;;;;;;5.77;4.37;;;13.80;90.00;;;;;;5068438;28;20486;-64
2021/10/08 08:52:24;;;;;;;4.90;3.83;;;13.80;90.20;;;;;;5069513;28;20526;-65
2021/10/08 08:54:53;;;;;;;4.43;3.90;;;13.90;88.30;;;;;;5070304;28;20910;-65
2021/10/08 08:57:21;;;;;;;5.93;4.60;;;14.00;87.80;;;;;;5069964;28;20988;-64
2021/10/08 08:59:59;;;;;;;5.30;3.90;;;14.00;87.20;;;;;;5070305;28;20519;-66
2021/10/08 09:02:29;;;;;;;5.40;4.13;;;14.10;87.10;;;;;;5070526;28;20828;-65
2021/10/08 09:04:56;;;;;;;6.03;4.87;;;14.10;87.40;;;;;;5070389;28;20526;-65
2021/10/08 09:07:34;;;;;;;6.23;4.70;;;14.20;87.40;;;;;;5069635;28;20550;-66
2021/10/08 09:10:15;;;;;;;6.00;4.10;;;14.30;86.00;;;;;;5070470;28;20482;-66
2021/10/08 09:12:44;;;;;;;6.17;4.97;;;14.30;87.10;;;;;;5070213;28;20445;-66
2021/10/08 09:15:11;;;;;;;7.00;4.30;;;14.40;87.10;;;;;;5069808;28;20487;-66
2021/10/08 09:17:40;;;;;;;7.63;5.07;;;14.50;85.40;;;;;;5070051;28;20432;-66
2021/10/08 09:20:09;;;;;;;7.00;4.77;;;14.60;85.30;;;;;;5070134;28;20523;-65
2021/10/08 09:22:53;;;;;;;5.87;4.77;;;14.70;85.30;;;;;;5070301;28;20531;-65
2021/10/08 09:25:24;;;;;;;7.00;5.60;;;14.90;85.20;;;;;;5073132;28;20519;-66
2021/10/08 09:27:53;;;;;;;7.67;5.90;;;15.10;83.90;;;;;;5073941;28;20927;-65
2021/10/08 09:30:24;;;;;;;7.43;5.77;;;15.30;84.50;;;;;;5074120;28;20478;-65
2021/10/08 09:32:56;;;;;;;10.60;5.77;;;15.50;81.70;;;;;;5070046;28;20439;-65
2021/10/08 09:35:24;;;;;;;8.43;5.93;;;15.70;81.00;;;;;;5073807;28;20578;-65
2021/10/08 09:38:00;;;;;;;6.57;5.53;;;15.80;81.20;;;;;;5068888;28;20474;-65
2021/10/08 09:40:32;;;;;;;6.50;5.30;;;16.00;81.10;;;;;;5072508;28;20946;-65
2021/10/08 09:43:06;;;;;;;6.90;6.00;;;16.30;79.50;;;;;;5072772;28;20446;-65
2021/10/08 09:45:43;;;;;;;9.10;5.17;;;16.70;81.10;;;;;;5071775;28;20436;-66
2021/10/08 09:48:13;;;;;;;8.37;6.10;;;17.10;79.80;;;;;;5072127;28;20440;-65
2021/10/08 09:51:01;;;;;;;8.53;6.40;;;17.80;78.60;;;;;;5071186;28;20440;-66
2021/10/08 09:53:29;;;;;;;8.00;5.03;;;18.40;73.50;;;;;;5071986;28;20509;-66
2021/10/08 09:55:56;;;;;;;9.67;7.30;;;18.80;69.60;;;;;;5072792;28;20439;-65
2021/10/08 09:58:23;;;;;;;6.40;5.77;;;18.70;66.80;;;;;;5072256;28;20806;-65
2021/10/08 10:00:57;;;;;;;7.83;6.83;;;18.60;66.40;;;;;;5072436;28;20908;-65
2021/10/08 10:03:26;;;;;;;7.90;6.37;;;18.40;64.90;;;;;;5072538;28;20447;-65
2021/10/08 10:05:53;;;;;;;7.30;5.37;;;18.10;65.90;;;;;;5072230;28;20501;-65
2021/10/08 10:08:20;;;;;;;7.33;6.10;;;17.90;66.20;;;;;;5070049;28;20909;-65
2021/10/08 10:10:47;;;;;;;8.13;6.87;;;17.70;66.70;;;;;;5072228;28;20522;-66
2021/10/08 10:13:15;;;;;;;9.60;6.47;;;17.60;66.60;;;;;;5072311;28;20444;-66
2021/10/08 10:15:46;;;;;;;10.43;8.23;;;17.60;67.30;;;;;;5068704;28;20538;-65
2021/10/08 10:18:16;;;;;;;8.70;7.00;;;17.70;68.10;;;;;;5072219;28;20440;-66
2021/10/08 10:20:48;;;;;;;11.00;7.37;;;18.80;70.10;;;;;;5072981;28;20483;-65
2021/10/08 10:23:17;;;;;;;10.13;7.40;;;19.30;64.30;;;;;;5068487;28;20513;-66
2021/10/08 10:25:45;;;;;;;8.80;7.03;;;19.30;63.50;;;;;;5072557;28;20522;-65
2021/10/08 10:28:12;;;;;;;8.83;7.37;;;19.10;64.10;;;;;;5072794;28;20810;-66
2021/10/08 10:30:41;;;;;;;12.80;8.37;;;18.90;62.80;;;;;;5072820;28;20432;-64
2021/10/08 10:33:09;;;;;;;10.60;7.07;;;18.90;64.90;;;;;;5072697;28;20448;-64
2021/10/08 10:35:41;;;;;;;9.60;8.20;;;19.60;63.80;;;;;;5072017;28;20526;-65
2021/10/08 10:38:30;;;;;;;8.97;7.30;;;20.50;69.20;;;;;;5072589;28;20456;-67
2021/10/08 10:41:25;;;;;;;8.10;7.00;;;25.30;61.70;;;;;;5072819;28;20531;-68
2021/10/08 10:44:19;;;;;;;8.93;7.10;;;30.90;47.60;;;;;;5072587;28;20490;-66
2021/10/08 10:46:50;;;;;;;9.10;8.20;;;31.50;33.60;;;;;;5066494;28;20524;-64
2021/10/08 10:52:24;;;;;;;8.93;8.00;;;27.90;35.90;;;;;;5068397;28;20424;-66
2021/10/08 10:55:17;;;;;;;10.00;7.80;;;27.40;36.40;;;;;;5072812;28;20526;-65
2021/10/08 10:57:59;;;;;;;8.93;8.03;;;26.30;37.80;;;;;;5070835;28;20444;-66
2021/10/08 11:00:38;;;;;;;9.43;7.90;;;26.30;43.80;;;;;;5072602;28;20442;-66
2021/10/08 11:03:13;;;;;;;11.33;8.00;;;28.40;38.30;;;;;;5072097;28;20539;-68
2021/10/08 11:05:43;;;;;;;10.10;9.10;;;28.80;34.80;;;;;;5072316;28;20514;-67
2021/10/08 11:08:15;;;;;;;10.70;9.70;;;30.20;37.50;;;;;;5072445;28;20566;-66
2021/10/08 11:10:46;;;;;;;10.67;9.70;;;31.10;33.50;;;;;;5068356;28;20852;-66
2021/10/08 11:13:28;;;;;;;10.27;9.27;;;31.40;30.00;;;;;;5072255;28;20437;-66
2021/10/08 11:16:01;;;;;;;9.53;8.60;;;29.80;30.50;;;;;;5067671;28;20484;-66
2021/10/08 11:18:56;;;;;;;11.10;9.50;;;28.20;32.20;;;;;;5072295;28;20527;-65
2021/10/08 11:21:49;;;;;;;11.13;9.33;;;26.70;34.50;;;;;;5024667;28;20487;-66
2021/10/08 11:24:18;;;;;;;12.00;10.30;;;25.80;37.20;;;;;;5072398;28;20489;-66
2021/10/08 11:27:05;;;;;;;12.90;11.17;;;26.70;35.90;;;;;;5070850;28;21054;-65
2021/10/08 11:29:34;;;;;;;10.10;9.10;;;26.90;36.40;;;;;;5069628;28;20451;-66
2021/10/08 11:32:04;;;;;;;11.20;10.10;;;29.60;36.70;;;;;;5071047;28;20470;-67
2021/10/08 11:34:35;;;;;;;11.93;9.30;;;29.90;31.20;;;;;;5071454;28;20479;-66
2021/10/08 11:37:02;;;;;;;10.10;9.00;;;28.80;32.10;;;;;;5071144;28;20442;-68
2021/10/08 11:39:30;;;;;;;10.60;9.00;;;30.80;31.80;;;;;;5069521;28;20435;-66
2021/10/08 11:42:07;;;;;;;10.20;9.23;;;33.80;28.50;;;;;;5071307;28;20434;-66
2021/10/08 11:44:41;;;;;;;8.70;7.90;;;36.20;25.10;;;;;;5071079;28;20769;-67
2021/10/08 11:47:20;;;;;;;9.47;8.57;;;38.10;21.90;;;;;;5070748;28;20436;-64
2021/10/08 11:50:15;;;;;;;10.30;9.37;;;39.60;20.90;;;;;;5071286;28;20861;-64
2021/10/08 11:52:44;;;;;;;9.63;8.53;;;40.80;19.60;;;;;;5070184;28;20518;-69
2021/10/08 11:55:18;;;;;;;13.27;10.17;;;41.70;17.70;;;;;;5066706;28;20549;-66
2021/10/08 11:57:59;;;;;;;9.80;8.90;;;42.00;18.00;;;;;;5070433;28;20537;-67
2021/10/08 12:00:33;;;;;;;8.30;7.60;;;42.80;16.90;;;;;;5070601;28;20483;-65
2021/10/08 12:03:06;;;;;;;9.73;8.80;;;41.40;15.60;;;;;;5070265;28;20439;-67
2021/10/08 12:05:44;;;;;;;9.77;8.87;;;38.20;16.50;;;;;;5071200;28;20547;-66
2021/10/08 12:08:14;;;;;;;10.90;9.90;;;35.90;18.60;;;;;;5061348;28;20464;-66
2021/10/08 12:10:52;;;;;;;9.90;9.00;;;34.50;20.30;;;;;;5066321;28;20447;-66
2021/10/08 12:13:19;;;;;;;11.17;10.07;;;33.20;21.00;;;;;;5069443;28;20428;-65
2021/10/08 12:15:48;;;;;;;10.13;9.13;;;32.20;22.40;;;;;;5069419;28;20472;-67
2021/10/08 12:18:16;;;;;;;9.97;8.97;;;32.90;24.10;;;;;;5066097;28;20432;-66
2021/10/08 12:20:46;;;;;;;8.87;7.90;;;34.60;23.20;;;;;;5070097;28;20436;-66
2021/10/08 12:23:17;;;;;;;10.20;9.20;;;35.10;21.60;;;;;;5070747;28;20523;-68
2021/10/08 12:25:46;;;;;;;8.67;7.77;;;34.40;21.50;;;;;;5066809;28;20668;-66
2021/10/08 12:28:20;;;;;;;8.80;8.00;;;33.40;21.70;;;;;;5070872;28;20468;-66
2021/10/08 12:31:00;;;;;;;9.60;8.60;;;32.10;22.00;;;;;;5070385;28;20428;-66
2021/10/08 12:33:35;;;;;;;8.57;7.63;;;31.80;25.10;;;;;;5070834;28;20467;-66
2021/10/08 12:36:24;;;;;;;8.10;7.30;;;33.80;23.60;;;;;;5070046;28;20561;-65
2021/10/08 12:38:56;;;;;;;10.27;9.27;;;35.80;23.00;;;;;;5070247;28;20436;-67
2021/10/08 12:41:26;;;;;;;8.50;7.70;;;37.20;21.00;;;;;;5070512;28;21028;-66
2021/10/08 12:44:07;;;;;;;7.90;7.20;;;38.30;19.70;;;;;;5070178;28;20511;-66
2021/10/08 12:46:42;;;;;;;8.80;7.90;;;38.80;19.30;;;;;;5067359;28;20463;-66
2021/10/08 12:49:10;;;;;;;9.07;8.13;;;38.90;18.70;;;;;;5070094;28;20428;-67
2021/10/08 12:51:50;;;;;;;9.33;7.40;;;38.10;17.50;;;;;;5064738;28;20516;-66